createdAt,value
2022-10-11T00:02:06.580Z,18.10
2022-10-11T00:04:35.890Z,18.10
2022-10-11T00:07:03.802Z,18.10
2022-10-11T00:09:31.817Z,18.10
2022-10-11T00:11:59.962Z,18.10
2022-10-11T00:14:28.565Z,18.10
2022-10-11T00:16:56.782Z,18.10
2022-10-11T00:19:24.771Z,18.20
2022-10-11T00:21:54.008Z,18.10
2022-10-11T00:24:21.990Z,18.10
2022-10-11T00:26:49.868Z,18.10
2022-10-11T00:29:17.746Z,18.10
2022-10-11T00:31:45.621Z,18.10
2022-10-11T00:34:15.515Z,18.10
2022-10-11T00:36:43.411Z,18.10
2022-10-11T00:39:14.536Z,18.00
2022-10-11T00:41:42.609Z,17.90
2022-10-11T00:44:12.743Z,17.90
2022-10-11T00:46:43.399Z,17.80
2022-10-11T00:49:18.536Z,17.80
2022-10-11T00:51:51.846Z,17.90
2022-10-11T00:54:25.240Z,17.80
2022-10-11T00:56:57.759Z,17.80
2022-10-11T00:59:29.605Z,17.80
2022-10-11T01:01:57.773Z,17.70
2022-10-11T01:04:25.604Z,17.70
2022-10-11T01:06:55.759Z,17.70
2022-10-11T01:09:25.866Z,17.70
2022-10-11T01:11:57.259Z,17.40
2022-10-11T01:15:10.946Z,17.10
2022-10-11T01:17:47.492Z,16.80
2022-10-11T01:20:42.654Z,16.90
2022-10-11T01:23:46.395Z,17.00
2022-10-11T01:26:46.654Z,16.80
2022-10-11T01:29:26.097Z,16.50
2022-10-11T01:32:03.104Z,16.40
2022-10-11T01:34:38.116Z,16.50
2022-10-11T01:37:11.563Z,16.50
2022-10-11T01:39:44.626Z,16.60
2022-10-11T01:42:14.362Z,16.80
2022-10-11T01:44:46.620Z,16.90
2022-10-11T01:47:20.335Z,17.10
2022-10-11T01:49:54.997Z,17.20
2022-10-11T01:52:23.310Z,17.30
2022-10-11T01:55:09.596Z,17.30
2022-10-11T01:57:55.971Z,17.40
2022-10-11T02:00:25.933Z,17.50
2022-10-11T02:03:13.407Z,17.70
2022-10-11T02:05:48.138Z,17.70
2022-10-11T02:08:23.331Z,17.60
2022-10-11T02:10:58.514Z,17.50
2022-10-11T02:13:32.476Z,17.50
2022-10-11T02:16:04.322Z,17.40
2022-10-11T02:18:38.324Z,17.40
2022-10-11T02:21:09.674Z,17.40
2022-10-11T02:23:43.290Z,17.40
2022-10-11T02:26:14.173Z,17.30
2022-10-11T02:28:44.786Z,17.20
2022-10-11T02:31:13.793Z,17.20
2022-10-11T02:33:46.271Z,17.20
2022-10-11T02:36:21.871Z,17.10
2022-10-11T02:38:53.927Z,16.90
2022-10-11T02:41:28.621Z,16.90
2022-10-11T02:44:01.151Z,16.80
2022-10-11T02:46:31.112Z,16.20
2022-10-11T02:49:01.556Z,15.90
2022-10-11T02:51:32.275Z,15.90
2022-10-11T02:54:00.215Z,15.80
2022-10-11T02:56:28.161Z,15.90
2022-10-11T02:58:56.040Z,16.00
2022-10-11T03:01:23.975Z,15.90
2022-10-11T03:03:51.865Z,15.90
2022-10-11T03:06:21.079Z,15.90
2022-10-11T03:08:48.974Z,15.90
2022-10-11T03:11:16.833Z,16.00
2022-10-11T03:13:44.745Z,16.20
2022-10-11T03:16:13.374Z,16.10
2022-10-11T03:18:41.760Z,15.80
2022-10-11T03:21:09.796Z,15.80
2022-10-11T03:23:39.992Z,15.80
2022-10-11T03:26:08.558Z,15.80
2022-10-11T03:28:37.072Z,15.80
2022-10-11T03:31:05.070Z,15.80
2022-10-11T03:33:32.942Z,15.80
2022-10-11T03:36:00.824Z,15.80
2022-10-11T03:38:28.717Z,15.80
2022-10-11T03:40:57.968Z,15.80
2022-10-11T03:43:26.158Z,15.90
2022-10-11T03:45:54.054Z,16.00
2022-10-11T03:48:22.022Z,16.00
2022-10-11T03:50:50.531Z,16.10
2022-10-11T03:53:18.424Z,16.10
2022-10-11T03:55:46.368Z,16.00
2022-10-11T03:58:15.582Z,16.00
2022-10-11T04:00:43.463Z,15.90
2022-10-11T04:03:11.371Z,15.90
2022-10-11T04:05:39.288Z,15.90
2022-10-11T04:08:11.802Z,16.00
2022-10-11T04:10:40.466Z,16.00
2022-10-11T04:13:08.450Z,16.00
2022-10-11T04:15:38.511Z,15.90
2022-10-11T04:18:07.052Z,16.00
2022-10-11T04:20:34.984Z,16.10
2022-10-11T04:23:03.188Z,16.20
2022-10-11T04:25:31.068Z,16.30
2022-10-11T04:27:58.955Z,16.20
2022-10-11T04:30:26.826Z,16.00
2022-10-11T04:32:56.756Z,15.90
2022-10-11T04:35:24.660Z,16.10
2022-10-11T04:37:52.538Z,16.30
2022-10-11T04:40:20.453Z,16.20
2022-10-11T04:42:50.379Z,16.20
2022-10-11T04:45:18.351Z,16.10
2022-10-11T04:47:46.219Z,16.30
2022-10-11T04:50:15.673Z,16.50
2022-10-11T04:52:43.653Z,16.50
2022-10-11T04:55:12.183Z,16.40
2022-10-11T04:57:40.056Z,16.30
2022-10-11T05:00:09.104Z,16.20
2022-10-11T05:02:37.033Z,16.10
2022-10-11T05:05:05.309Z,16.20
2022-10-11T05:07:34.519Z,16.20
2022-10-11T05:10:02.377Z,16.10
2022-10-11T05:12:30.280Z,15.90
2022-10-11T05:14:59.544Z,15.70
2022-10-11T05:17:27.397Z,15.30
2022-10-11T05:19:55.310Z,15.10
2022-10-11T05:22:23.167Z,15.10
2022-10-11T05:24:52.404Z,15.10
2022-10-11T05:27:20.277Z,15.00
2022-10-11T05:29:48.144Z,14.90
2022-10-11T05:32:16.019Z,14.80
2022-10-11T05:34:43.954Z,14.70
2022-10-11T05:37:11.884Z,14.40
2022-10-11T05:39:39.812Z,14.50
2022-10-11T05:42:10.163Z,14.80
2022-10-11T05:44:38.133Z,14.90
2022-10-11T05:47:06.122Z,15.00
2022-10-11T05:49:33.984Z,15.20
2022-10-11T05:52:01.924Z,15.40
2022-10-11T05:54:31.050Z,15.70
2022-10-11T05:56:58.923Z,15.80
2022-10-11T05:59:28.317Z,15.80
2022-10-11T06:01:56.221Z,15.80
2022-10-11T06:04:24.074Z,15.70
2022-10-11T06:06:52.158Z,15.70
2022-10-11T06:09:20.069Z,15.70
2022-10-11T06:11:48.579Z,15.70
2022-10-11T06:14:16.455Z,15.70
2022-10-11T06:16:45.714Z,15.70
2022-10-11T06:19:13.597Z,15.60
2022-10-11T06:21:41.523Z,15.70
2022-10-11T06:24:09.582Z,15.90
2022-10-11T06:26:37.407Z,16.10
2022-10-11T06:29:05.304Z,16.00
2022-10-11T06:31:33.750Z,15.90
2022-10-11T06:34:03.144Z,15.80
2022-10-11T06:36:31.192Z,15.80
2022-10-11T06:39:00.960Z,15.80
2022-10-11T06:41:30.986Z,15.80
2022-10-11T06:43:59.041Z,15.70
2022-10-11T06:46:28.504Z,15.70
2022-10-11T06:48:56.468Z,15.70
2022-10-11T06:51:26.034Z,15.90
2022-10-11T06:53:56.762Z,16.10
2022-10-11T06:56:25.544Z,16.00
2022-10-11T06:58:54.414Z,15.90
2022-10-11T07:01:23.754Z,15.80
2022-10-11T07:03:53.073Z,15.70
2022-10-11T07:06:22.933Z,15.80
2022-10-11T07:08:52.307Z,15.80
2022-10-11T07:11:22.413Z,15.90
2022-10-11T07:13:51.985Z,15.90
2022-10-11T07:16:20.890Z,15.90
2022-10-11T07:18:49.432Z,15.90
2022-10-11T07:21:17.652Z,15.80
2022-10-11T07:23:45.750Z,15.80
2022-10-11T07:26:15.030Z,15.80
2022-10-11T07:28:43.093Z,15.70
2022-10-11T07:31:13.985Z,15.70
2022-10-11T07:33:41.903Z,15.70
2022-10-11T07:36:10.412Z,15.80
2022-10-11T07:38:40.953Z,15.90
2022-10-11T07:41:09.371Z,16.10
2022-10-11T07:43:39.272Z,16.30
2022-10-11T07:46:08.123Z,16.30
2022-10-11T07:48:37.411Z,16.50
2022-10-11T07:51:07.785Z,16.40
2022-10-11T07:53:40.610Z,16.30
2022-10-11T07:56:10.116Z,16.20
2022-10-11T07:58:39.368Z,16.00
2022-10-11T08:01:08.015Z,16.10
2022-10-11T08:03:36.277Z,16.00
2022-10-11T08:06:07.353Z,16.00
2022-10-11T08:08:35.863Z,16.00
2022-10-11T08:11:04.379Z,16.10
2022-10-11T08:13:32.642Z,16.30
2022-10-11T08:16:02.600Z,16.40
2022-10-11T08:18:31.024Z,16.40
2022-10-11T08:20:58.915Z,16.40
2022-10-11T08:23:26.849Z,16.50
2022-10-11T08:25:57.564Z,16.50
2022-10-11T08:28:25.837Z,16.50
2022-10-11T08:30:55.708Z,16.50
2022-10-11T08:33:26.267Z,16.40
2022-10-11T08:35:54.999Z,16.50
2022-10-11T08:38:22.990Z,16.50
2022-10-11T08:40:53.903Z,16.60
2022-10-11T08:43:33.183Z,16.60
2022-10-11T08:46:03.523Z,16.70
2022-10-11T08:48:36.339Z,16.70
2022-10-11T08:51:10.070Z,16.70
2022-10-11T08:53:47.078Z,16.40
2022-10-11T08:56:17.233Z,16.10
2022-10-11T08:58:50.647Z,16.00
2022-10-11T09:01:22.689Z,16.10
2022-10-11T09:03:52.468Z,16.00
2022-10-11T09:06:32.178Z,16.00
2022-10-11T09:09:23.406Z,15.90
2022-10-11T09:12:05.682Z,15.80
2022-10-11T09:15:07.501Z,16.00
2022-10-11T09:17:51.779Z,16.20
2022-10-11T09:20:33.800Z,16.60
2022-10-11T09:23:06.236Z,16.80
2022-10-11T09:25:36.401Z,17.10
2022-10-11T09:28:16.856Z,17.60
2022-10-11T09:30:49.009Z,17.60
2022-10-11T09:33:21.071Z,17.40
2022-10-11T09:35:53.037Z,17.50
2022-10-11T09:38:32.135Z,17.40
2022-10-11T09:41:10.361Z,16.90
2022-10-11T09:43:38.479Z,16.80
2022-10-11T09:46:16.029Z,16.90
2022-10-11T09:48:44.670Z,16.80
2022-10-11T09:51:17.951Z,16.30
2022-10-11T09:53:55.214Z,16.20
2022-10-11T09:56:24.391Z,16.20
2022-10-11T09:59:07.964Z,16.30
2022-10-11T10:01:36.412Z,16.30
2022-10-11T10:04:12.462Z,16.50
2022-10-11T10:06:41.958Z,16.80
2022-10-11T10:09:28.741Z,17.40
2022-10-11T10:11:57.432Z,17.80
2022-10-11T10:14:27.743Z,17.80
2022-10-11T10:17:04.394Z,17.40
2022-10-11T10:19:44.490Z,17.30
2022-10-11T10:22:20.601Z,16.90
2022-10-11T10:24:49.752Z,16.60
2022-10-11T10:27:21.262Z,16.60
2022-10-11T10:30:04.435Z,16.60
2022-10-11T10:32:42.807Z,16.40
2022-10-11T10:35:19.824Z,16.30
2022-10-11T10:37:57.678Z,16.50
2022-10-11T10:40:30.824Z,16.80
2022-10-11T10:42:59.245Z,17.00
2022-10-11T10:45:37.246Z,17.20
2022-10-11T10:48:20.034Z,17.20
2022-10-11T10:50:55.628Z,16.60
2022-10-11T10:53:33.495Z,16.40
2022-10-11T10:56:09.229Z,16.30
2022-10-11T10:59:03.654Z,16.20
2022-10-11T11:01:33.927Z,16.10
2022-10-11T11:04:10.461Z,16.10
2022-10-11T11:06:43.568Z,16.30
2022-10-11T11:09:36.305Z,16.50
2022-10-11T11:12:16.168Z,17.30
2022-10-11T11:14:55.395Z,17.60
2022-10-11T11:17:32.332Z,17.50
2022-10-11T11:20:16.212Z,17.50
2022-10-11T11:22:51.237Z,17.50
2022-10-11T11:25:28.828Z,17.60
2022-10-11T11:28:11.020Z,17.70
2022-10-11T11:30:51.912Z,17.90
2022-10-11T11:33:29.992Z,18.10
2022-10-11T11:36:03.412Z,18.10
2022-10-11T11:38:39.159Z,18.10
2022-10-11T11:41:14.465Z,17.90
2022-10-11T11:43:59.343Z,17.80
2022-10-11T11:46:31.424Z,17.70
2022-10-11T11:49:03.332Z,17.30
2022-10-11T11:51:34.486Z,17.30
2022-10-11T11:54:09.291Z,17.80
2022-10-11T11:56:51.351Z,18.30
2022-10-11T11:59:26.052Z,18.60
2022-10-11T12:02:02.951Z,18.70
2022-10-11T12:04:35.360Z,18.20
2022-10-11T12:07:17.654Z,18.10
2022-10-11T12:09:50.436Z,18.00
2022-10-11T12:12:31.501Z,18.00
2022-10-11T12:15:19.463Z,18.20
2022-10-11T12:18:16.164Z,18.40
2022-10-11T12:20:45.030Z,18.40
2022-10-11T12:23:39.152Z,18.20
2022-10-11T12:26:41.531Z,18.00
2022-10-11T12:29:36.763Z,18.00
2022-10-11T12:32:53.371Z,18.10
2022-10-11T12:35:51.558Z,17.80
2022-10-11T12:38:22.674Z,17.30
2022-10-11T12:40:52.226Z,17.20
2022-10-11T12:43:32.424Z,16.80
2022-10-11T12:46:34.620Z,16.60
2022-10-11T12:49:18.858Z,16.90
2022-10-11T12:51:54.748Z,17.30
2022-10-11T12:55:01.854Z,17.40
2022-10-11T12:57:59.794Z,17.10
2022-10-11T13:00:30.996Z,16.90
2022-10-11T13:03:00.201Z,16.80
2022-10-11T13:05:32.927Z,17.10
2022-10-11T13:08:06.175Z,17.40
2022-10-11T13:10:40.605Z,17.50
2022-10-11T13:13:18.538Z,17.30
2022-10-11T13:15:47.030Z,17.40
2022-10-11T13:18:16.768Z,17.80
2022-10-11T13:20:45.520Z,18.20
2022-10-11T13:23:25.140Z,18.20
2022-10-11T13:25:53.598Z,18.10
2022-10-11T13:28:22.616Z,18.20
2022-10-11T13:30:55.261Z,18.30
2022-10-11T13:33:27.684Z,18.50
2022-10-11T13:35:55.590Z,18.40
2022-10-11T13:38:28.194Z,18.30
2022-10-11T13:40:57.755Z,18.50
2022-10-11T13:43:28.141Z,18.80
2022-10-11T13:45:57.531Z,19.10
2022-10-11T13:48:29.438Z,19.30
2022-10-11T13:51:27.790Z,19.60
2022-10-11T13:54:02.527Z,19.70
2022-10-11T13:56:33.928Z,19.70
2022-10-11T13:59:02.120Z,19.40
2022-10-11T14:01:37.618Z,18.70
2022-10-11T14:04:08.473Z,18.10
2022-10-11T14:06:45.229Z,17.60
2022-10-11T14:09:22.668Z,17.70
2022-10-11T14:11:51.221Z,17.40
2022-10-11T14:14:42.855Z,17.40
2022-10-11T14:17:17.208Z,17.70
2022-10-11T14:19:46.148Z,17.90
2022-10-11T14:22:16.025Z,18.00
2022-10-11T14:24:48.688Z,18.20
2022-10-11T14:27:21.076Z,18.30
2022-10-11T14:30:12.954Z,18.40
2022-10-11T14:32:37.470Z,18.90
2022-10-11T14:35:06.798Z,19.30
2022-10-11T14:37:34.676Z,19.50
2022-10-11T14:40:12.982Z,19.40
2022-10-11T14:42:40.852Z,19.40
2022-10-11T14:45:09.641Z,18.90
2022-10-11T14:47:42.638Z,18.80
2022-10-11T14:50:32.537Z,18.70
2022-10-11T14:53:00.684Z,18.80
2022-10-11T14:55:31.306Z,18.50
2022-10-11T14:57:59.361Z,18.40
2022-10-11T15:00:30.955Z,18.50
2022-10-11T15:02:58.899Z,18.40
2022-10-11T15:05:33.663Z,18.10
2022-10-11T15:08:02.001Z,18.20
2022-10-11T15:10:35.487Z,18.50
2022-10-11T15:13:04.563Z,18.70
2022-10-11T15:15:35.429Z,18.50
2022-10-11T15:18:05.011Z,18.10
2022-10-11T15:20:35.101Z,17.90
2022-10-11T15:23:03.068Z,18.00
2022-10-11T15:25:32.896Z,18.30
2022-10-11T15:28:00.961Z,18.70
2022-10-11T15:30:32.664Z,18.30
2022-10-11T15:33:03.297Z,18.50
2022-10-11T15:35:31.445Z,18.60
2022-10-11T15:38:01.095Z,18.50
2022-10-11T15:40:34.406Z,18.70
2022-10-11T15:43:02.655Z,18.90
2022-10-11T15:45:31.118Z,19.10
2022-10-11T15:47:59.507Z,19.20
2022-10-11T15:50:34.916Z,19.20
2022-10-11T15:53:03.585Z,19.50
2022-10-11T15:55:34.048Z,19.70
2022-10-11T15:58:02.152Z,19.50
2022-10-11T16:00:31.086Z,19.30
2022-10-11T16:03:00.086Z,19.20
2022-10-11T16:05:29.308Z,19.20
2022-10-11T16:07:57.189Z,19.30
2022-10-11T16:10:25.107Z,19.50
2022-10-11T16:12:54.342Z,19.60
2022-10-11T16:15:22.328Z,19.70
2022-10-11T16:17:50.669Z,19.70
2022-10-11T16:20:22.146Z,19.80
2022-10-11T16:22:50.319Z,19.90
2022-10-11T16:25:18.858Z,19.90
2022-10-11T16:27:46.900Z,20.00
2022-10-11T16:30:17.880Z,20.00
2022-10-11T16:32:46.549Z,20.00
2022-10-11T16:35:16.262Z,20.00
2022-10-11T16:37:44.475Z,20.00
2022-10-11T16:40:15.741Z,20.00
2022-10-11T16:42:44.180Z,20.00
2022-10-11T16:45:12.450Z,19.90
2022-10-11T16:47:41.948Z,19.90
2022-10-11T16:50:11.277Z,19.90
2022-10-11T16:52:40.193Z,19.90
2022-10-11T16:55:08.629Z,19.90
2022-10-11T16:57:37.746Z,19.90
2022-10-11T17:00:07.720Z,19.90
2022-10-11T17:02:36.533Z,19.90
2022-10-11T17:05:06.428Z,19.90
2022-10-11T17:07:34.270Z,20.00
2022-10-11T17:10:02.449Z,20.00
2022-10-11T17:12:31.814Z,20.00
2022-10-11T17:14:59.699Z,20.00
2022-10-11T17:17:28.039Z,19.90
2022-10-11T17:19:55.936Z,19.90
2022-10-11T17:22:25.553Z,19.90
2022-10-11T17:24:53.430Z,19.90
2022-10-11T17:27:21.327Z,19.90
2022-10-11T17:29:49.222Z,19.90
2022-10-11T17:32:17.161Z,20.10
2022-10-11T17:34:45.015Z,20.10
2022-10-11T17:37:12.902Z,20.00
2022-10-11T17:39:42.122Z,20.00
2022-10-11T17:42:09.986Z,19.90
2022-10-11T17:44:38.011Z,19.80
2022-10-11T17:47:06.177Z,19.70
2022-10-11T17:49:34.093Z,19.50
2022-10-11T17:52:01.995Z,19.20
2022-10-11T17:54:30.176Z,19.20
2022-10-11T17:56:59.527Z,19.40
2022-10-11T17:59:28.713Z,19.50
2022-10-11T18:01:56.621Z,19.60
2022-10-11T18:04:26.858Z,19.60
2022-10-11T18:06:55.327Z,19.70
2022-10-11T18:09:24.594Z,19.70
2022-10-11T18:11:52.534Z,19.80
2022-10-11T18:14:21.841Z,19.80
2022-10-11T18:16:49.913Z,19.70
2022-10-11T18:19:17.969Z,19.60
2022-10-11T18:21:45.846Z,19.50
2022-10-11T18:24:15.951Z,19.50
2022-10-11T18:26:44.556Z,19.30
2022-10-11T18:29:13.449Z,19.20
2022-10-11T18:31:43.024Z,19.00
2022-10-11T18:34:14.718Z,18.80
2022-10-11T18:36:43.131Z,18.70
2022-10-11T18:39:14.722Z,18.80
2022-10-11T18:41:44.888Z,18.80
2022-10-11T18:44:15.111Z,18.90
2022-10-11T18:46:44.919Z,19.00
2022-10-11T18:49:13.386Z,19.10
2022-10-11T18:51:42.346Z,19.00
2022-10-11T18:54:18.313Z,19.00
2022-10-11T18:56:48.942Z,19.10
2022-10-11T18:59:16.899Z,19.20
2022-10-11T19:01:46.741Z,19.20
2022-10-11T19:04:16.702Z,19.20
2022-10-11T19:06:47.609Z,19.20
2022-10-11T19:09:21.256Z,19.10
2022-10-11T19:11:50.126Z,19.20
2022-10-11T19:14:20.035Z,19.20
2022-10-11T19:16:51.339Z,19.10
2022-10-11T19:19:20.903Z,19.10
2022-10-11T19:21:49.465Z,19.10
2022-10-11T19:24:18.197Z,19.00
2022-10-11T19:26:46.334Z,19.00
2022-10-11T19:29:18.697Z,18.90
2022-10-11T19:31:47.956Z,19.00
2022-10-11T19:34:17.706Z,19.10
2022-10-11T19:36:46.005Z,19.20
2022-10-11T19:39:15.053Z,19.20
2022-10-11T19:41:43.462Z,19.10
2022-10-11T19:44:11.948Z,19.00
2022-10-11T19:46:55.156Z,18.90
2022-10-11T19:49:25.840Z,18.80
2022-10-11T19:51:55.192Z,18.70
2022-10-11T19:54:23.761Z,18.80
2022-10-11T19:56:51.732Z,19.00
2022-10-11T19:59:19.847Z,18.90
2022-10-11T20:01:52.949Z,18.80
2022-10-11T20:07:11.336Z,18.60
2022-10-11T20:09:39.232Z,18.60
2022-10-11T20:12:07.596Z,18.50
2022-10-11T20:14:35.520Z,18.40
2022-10-11T20:17:03.536Z,18.40
2022-10-11T20:19:31.883Z,18.30
2022-10-11T20:22:00.286Z,18.30
2022-10-11T20:24:33.506Z,18.30
2022-10-11T20:27:02.657Z,18.10
2022-10-11T20:29:30.588Z,18.20
2022-10-11T20:31:58.858Z,18.20
2022-10-11T20:34:27.582Z,18.20
2022-10-11T20:36:55.458Z,18.20
2022-10-11T20:39:23.659Z,18.20
2022-10-11T20:41:52.937Z,18.20
2022-10-11T20:44:20.827Z,18.20
2022-10-11T20:46:48.712Z,18.10
2022-10-11T20:49:16.594Z,18.10
2022-10-11T20:51:44.463Z,18.00
2022-10-11T20:54:12.739Z,18.00
2022-10-11T20:56:41.000Z,17.90
2022-10-11T20:59:11.099Z,18.00
2022-10-11T21:01:40.624Z,17.90
2022-10-11T21:04:10.930Z,17.90
2022-10-11T21:06:38.860Z,17.90
2022-10-11T21:09:07.395Z,18.00
2022-10-11T21:11:35.808Z,17.90
2022-10-11T21:14:05.830Z,17.90
2022-10-11T21:16:35.640Z,17.80
2022-10-11T21:19:04.169Z,17.70
2022-10-11T21:21:32.131Z,17.60
2022-10-11T21:24:01.241Z,17.60
2022-10-11T21:26:30.638Z,17.60
2022-10-11T21:29:00.106Z,17.60
2022-10-11T21:31:33.546Z,17.60
2022-10-11T21:34:04.945Z,17.60
2022-10-11T21:36:32.858Z,17.50
2022-10-11T21:39:00.743Z,17.50
2022-10-11T21:41:30.154Z,17.50
2022-10-11T21:43:58.614Z,17.40
2022-10-11T21:46:47.684Z,17.40
2022-10-11T21:49:17.604Z,17.30
2022-10-11T21:51:45.919Z,17.30
2022-10-11T21:54:13.835Z,17.30
2022-10-11T21:56:42.440Z,17.30
2022-10-11T21:59:12.375Z,17.30
2022-10-11T22:01:41.782Z,17.20
2022-10-11T22:04:10.424Z,17.10
2022-10-11T22:06:40.436Z,17.30
2022-10-11T22:09:09.321Z,17.40
2022-10-11T22:11:37.549Z,17.30
2022-10-11T22:14:05.630Z,17.30
2022-10-11T22:16:35.115Z,17.30
2022-10-11T22:19:03.043Z,17.20
2022-10-11T22:21:31.098Z,17.10
2022-10-11T22:24:00.386Z,17.00
2022-10-11T22:26:30.992Z,17.00
2022-10-11T22:28:59.351Z,17.00
2022-10-11T22:31:27.653Z,16.90
2022-10-11T22:33:55.869Z,16.90
2022-10-11T22:36:25.002Z,16.80
2022-10-11T22:38:53.423Z,16.80
2022-10-11T22:41:22.857Z,16.80
2022-10-11T22:43:51.076Z,16.80
2022-10-11T22:46:19.430Z,16.70
2022-10-11T22:48:47.362Z,16.70
2022-10-11T22:51:15.453Z,16.70
2022-10-11T22:53:43.421Z,16.70
2022-10-11T22:56:11.570Z,16.90
2022-10-11T22:58:40.878Z,16.90
2022-10-11T23:01:09.889Z,16.80
2022-10-11T23:03:37.879Z,16.60
2022-10-11T23:06:06.059Z,16.50
2022-10-11T23:08:34.002Z,16.50
2022-10-11T23:11:04.455Z,16.40
2022-10-11T23:13:32.317Z,16.50
2022-10-11T23:18:39.327Z,16.40
2022-10-11T23:21:08.212Z,16.40
2022-10-11T23:23:36.332Z,16.20
2022-10-11T23:26:06.739Z,16.20
2022-10-11T23:28:34.837Z,16.10
2022-10-11T23:31:07.281Z,16.20
2022-10-11T23:33:35.189Z,16.10
2022-10-11T23:36:03.071Z,16.20
2022-10-11T23:38:31.242Z,16.50
2022-10-11T23:40:59.462Z,16.50
2022-10-11T23:43:27.327Z,16.50
2022-10-11T23:45:55.819Z,16.40
2022-10-11T23:48:25.032Z,16.30
2022-10-11T23:50:53.047Z,16.20
2022-10-11T23:53:20.925Z,16.20
2022-10-11T23:55:48.774Z,16.20
2022-10-11T23:58:16.631Z,16.10
